< Typhoon 196433 1964 Season Typhoon 196501 >
Typhoon 196434 (OPAL)
General InformationTrack Information on Google Maps || Disaster Info.ResourceGoogle EarthGE AnimationAtom FeedGeoJSON
Detalied Best Track (Time Zone = UTC)
Year Month Day Hour Lat. Long. Pressure (hPa) Wind (kt) Class Image Chart
1964 12 9 00 6.3 152.7 1004 0 2 -- Chart
1964 12 9 06 6.5 150.8 1000 0 2 -- Chart
1964 12 9 12 6.5 148.8 998 0 2 -- Chart
1964 12 9 18 6.6 146.7 990 0 9 -- Chart
1964 12 10 00 6.8 145.0 985 0 9 -- Chart
1964 12 10 06 7.1 143.4 980 0 9 -- Chart
1964 12 10 12 7.6 141.8 975 0 9 -- Chart
1964 12 10 18 7.7 140.5 975 0 9 -- Chart
1964 12 11 00 7.9 138.4 975 0 9 -- Chart
1964 12 11 06 8.0 137.0 960 0 9 -- Chart
1964 12 11 12 9.3 135.8 940 0 9 -- Chart
1964 12 11 18 9.7 134.6 920 0 9 -- Chart
1964 12 12 00 9.5 133.5 900 0 9 -- Chart
1964 12 12 06 10.5 132.3 900 0 9 -- Chart
1964 12 12 12 10.9 130.8 900 0 9 -- Chart
1964 12 12 18 11.8 129.8 900 0 9 -- Chart
1964 12 13 00 12.4 128.7 910 0 9 -- Chart
1964 12 13 06 12.8 127.6 920 0 9 -- Chart
1964 12 13 12 13.5 126.4 930 0 9 -- Chart
1964 12 13 18 13.9 125.3 940 0 9 -- Chart
1964 12 14 00 14.4 124.0 960 0 9 -- Chart
1964 12 14 06 14.8 123.0 960 0 9 -- Chart
1964 12 14 12 15.3 122.5 965 0 9 -- Chart
1964 12 14 18 15.4 121.8 980 0 9 -- Chart
1964 12 15 00 15.5 121.1 990 0 9 -- Chart
1964 12 15 06 15.5 120.5 990 0 9 -- Chart
1964 12 15 12 16.2 120.5 990 0 9 -- Chart
1964 12 15 18 16.8 120.3 990 0 9 -- Chart
1964 12 16 00 17.5 120.4 998 0 9 -- Chart
1964 12 16 06 18.0 121.0 998 0 9 -- Chart
1964 12 16 12 19.2 122.0 998 0 9 -- Chart
1964 12 16 18 20.0 123.0 1000 0 9 -- Chart
1964 12 17 00 21.3 124.2 1000 0 6 -- Chart
1964 12 17 06 23.7 127.5 996 0 6 -- Chart
1964 12 17 12 25.0 130.8 998 0 6 -- Chart
1964 12 17 18 25.5 134.5 1000 0 6 -- Chart
1964 12 18 00 26.3 137.7 1000 0 6 -- Chart
1964 12 18 06 27.1 139.3 1000 0 6 -- Chart
Japan Meteorological Agency Best Track Data | Correction Date : 1990-10-17
< Typhoon 196433 1964 Season Typhoon 196501 >

Help